Time;durP1;ratioP1;P1;durP2;ratioP2;P2;SDS_P1;SDS_P2;PMS_P1;PMS_P2;Temp;Humidity;BMP_temperature;BMP_pressure;BME280_temperature;BME280_humidity;BME280_pressure;Samples;Min_cycle;Max_cycle;Signal;HPM_P1;HPM_P2
2023/09/03 00:01:00;;;;;;;41.65;32.58;;;14.50;99.90;;;;;;5053187;28;20094;-64
2023/09/03 00:03:25;;;;;;;40.25;29.52;;;14.50;99.90;;;;;;5017979;28;20514;-61
2023/09/03 00:05:56;;;;;;;36.08;25.90;;;14.50;99.90;;;;;;5048301;28;20041;-62
2023/09/03 00:08:23;;;;;;;32.95;26.77;;;14.50;99.90;;;;;;5063642;28;20091;-62
2023/09/03 00:10:53;;;;;;;30.17;24.65;;;14.50;99.90;;;;;;5061450;28;20419;-62
2023/09/03 00:13:19;;;;;;;27.35;19.33;;;14.50;99.90;;;;;;5062753;28;20039;-62
2023/09/03 00:15:45;;;;;;;27.65;19.98;;;14.40;99.90;;;;;;5064459;28;20091;-62
2023/09/03 00:18:14;;;;;;;27.92;19.17;;;14.40;99.90;;;;;;5059950;28;20076;-62
2023/09/03 00:20:41;;;;;;;22.80;16.88;;;14.40;99.90;;;;;;5027040;28;20527;-62
2023/09/03 00:23:07;;;;;;;26.60;18.60;;;14.40;99.90;;;;;;5043987;28;20059;-61
2023/09/03 00:25:37;;;;;;;24.70;16.60;;;14.40;99.90;;;;;;5047053;28;20040;-62
2023/09/03 00:28:03;;;;;;;22.00;15.68;;;14.30;99.90;;;;;;5046761;28;20671;-61
2023/09/03 00:30:29;;;;;;;22.23;16.55;;;14.30;99.90;;;;;;5054963;28;20072;-60
2023/09/03 00:32:55;;;;;;;25.25;18.30;;;14.30;99.90;;;;;;5067767;28;20633;-65
2023/09/03 00:35:21;;;;;;;22.85;16.52;;;14.20;99.90;;;;;;5065057;28;20032;-62
2023/09/03 00:37:47;;;;;;;23.35;16.33;;;14.20;99.90;;;;;;5050351;28;20129;-62
2023/09/03 00:40:12;;;;;;;22.75;16.45;;;14.20;99.90;;;;;;5064751;28;20679;-62
2023/09/03 00:42:38;;;;;;;27.02;16.45;;;14.10;99.90;;;;;;5063277;28;20040;-62
2023/09/03 00:45:04;;;;;;;21.00;15.13;;;14.10;99.90;;;;;;5047301;28;20041;-62
2023/09/03 00:47:30;;;;;;;20.23;14.70;;;14.10;99.90;;;;;;5047360;28;20045;-62
2023/09/03 00:49:56;;;;;;;20.08;13.98;;;14.10;99.90;;;;;;5048821;28;20053;-63
2023/09/03 00:52:23;;;;;;;24.90;14.82;;;14.00;99.90;;;;;;5041085;28;20489;-60
2023/09/03 00:54:50;;;;;;;21.15;13.65;;;14.00;99.90;;;;;;5076383;28;20044;-62
2023/09/03 00:57:15;;;;;;;21.50;15.60;;;14.00;99.90;;;;;;5067704;28;20041;-62
2023/09/03 00:59:42;;;;;;;18.95;13.68;;;14.00;99.90;;;;;;5066571;28;20416;-62
2023/09/03 01:02:12;;;;;;;19.02;14.00;;;13.90;99.90;;;;;;5049859;28;20048;-62
2023/09/03 01:04:39;;;;;;;23.08;15.55;;;13.90;99.90;;;;;;5064069;28;20060;-63
2023/09/03 01:07:06;;;;;;;21.58;14.68;;;13.90;99.90;;;;;;5065972;28;20083;-63
2023/09/03 01:09:31;;;;;;;21.45;15.38;;;13.90;99.90;;;;;;5059118;28;20051;-63
2023/09/03 01:12:10;;;;;;;21.23;15.57;;;13.90;99.90;;;;;;5045079;28;20052;-61
2023/09/03 01:14:40;;;;;;;21.20;15.32;;;13.90;99.90;;;;;;5047467;28;20036;-63
2023/09/03 01:17:31;;;;;;;26.67;16.70;;;13.90;99.90;;;;;;5041928;28;20068;-62
2023/09/03 01:20:09;;;;;;;23.90;16.58;;;13.90;99.90;;;;;;5046902;28;20049;-62
2023/09/03 01:22:55;;;;;;;21.52;16.02;;;13.80;99.90;;;;;;5067839;28;20044;-63
2023/09/03 01:26:03;;;;;;;20.50;15.80;;;13.80;99.90;;;;;;5053069;28;20077;-61
2023/09/03 01:28:38;;;;;;;25.05;15.70;;;13.80;99.90;;;;;;5045484;28;20091;-63
2023/09/03 01:31:11;;;;;;;22.63;16.17;;;13.80;99.90;;;;;;5033908;28;20053;-62
2023/09/03 01:33:44;;;;;;;23.08;15.90;;;13.80;99.90;;;;;;5058403;28;20044;-63
2023/09/03 01:36:11;;;;;;;22.42;16.73;;;13.80;99.90;;;;;;5065686;28;20125;-62
2023/09/03 01:38:37;;;;;;;24.30;16.73;;;13.70;99.90;;;;;;5064390;28;20044;-62
2023/09/03 01:41:04;;;;;;;23.70;16.90;;;13.70;99.90;;;;;;5045237;28;20412;-63
2023/09/03 01:43:30;;;;;;;25.30;17.40;;;13.60;99.90;;;;;;5046574;28;20045;-63
2023/09/03 01:46:12;;;;;;;21.23;16.20;;;13.60;99.90;;;;;;5046709;28;20033;-62
2023/09/03 01:49:15;;;;;;;22.60;16.42;;;13.60;99.90;;;;;;5065413;28;20063;-63
2023/09/03 01:51:53;;;;;;;23.75;16.92;;;13.50;99.90;;;;;;5065368;28;20407;-63
2023/09/03 01:54:27;;;;;;;22.20;16.70;;;13.40;99.90;;;;;;5065208;28;20037;-62
2023/09/03 01:57:12;;;;;;;22.45;17.48;;;13.40;99.90;;;;;;5066345;28;20120;-63
2023/09/03 01:59:48;;;;;;;21.75;17.17;;;13.40;99.90;;;;;;5065892;28;20451;-63
2023/09/03 02:02:16;;;;;;;24.55;17.80;;;13.40;99.90;;;;;;5056002;28;20679;-65
2023/09/03 02:04:42;;;;;;;23.40;18.08;;;13.40;99.90;;;;;;5046867;28;20515;-62
2023/09/03 02:07:08;;;;;;;27.73;18.33;;;13.50;99.90;;;;;;5046898;28;20084;-64
2023/09/03 02:09:34;;;;;;;24.15;17.52;;;13.50;99.90;;;;;;5033412;28;20427;-65
2023/09/03 02:12:00;;;;;;;25.10;17.38;;;13.50;99.90;;;;;;5064426;28;20037;-63
2023/09/03 02:14:26;;;;;;;21.90;16.58;;;13.50;99.90;;;;;;5054824;28;20045;-64
2023/09/03 02:16:52;;;;;;;23.52;16.60;;;13.50;99.90;;;;;;5047166;28;20037;-63
2023/09/03 02:19:18;;;;;;;22.35;16.02;;;13.40;99.90;;;;;;5046363;28;20175;-65
2023/09/03 02:21:44;;;;;;;20.52;15.38;;;13.50;99.90;;;;;;5037683;28;20123;-63
2023/09/03 02:24:09;;;;;;;21.55;15.73;;;13.40;99.90;;;;;;5064555;28;20451;-63
2023/09/03 02:26:43;;;;;;;20.80;15.90;;;13.40;99.90;;;;;;5059063;28;20080;-63
2023/09/03 02:29:09;;;;;;;22.15;16.17;;;13.50;99.90;;;;;;5064969;28;20040;-63
2023/09/03 02:31:35;;;;;;;23.40;16.90;;;13.40;99.90;;;;;;5029565;28;20114;-61
2023/09/03 02:34:04;;;;;;;20.40;15.43;;;13.40;99.90;;;;;;5032669;28;20040;-64
2023/09/03 02:36:31;;;;;;;21.23;15.73;;;13.40;99.90;;;;;;5065973;28;20123;-62
2023/09/03 02:39:01;;;;;;;20.25;15.27;;;13.40;99.90;;;;;;5064405;28;20102;-62
2023/09/03 02:41:29;;;;;;;20.67;15.07;;;13.40;99.90;;;;;;5045123;28;20622;-61
2023/09/03 02:43:57;;;;;;;19.95;14.48;;;13.50;99.90;;;;;;5049252;28;20079;-62
2023/09/03 02:46:23;;;;;;;20.40;14.65;;;13.40;99.90;;;;;;5064236;28;20053;-63
2023/09/03 02:48:49;;;;;;;18.05;13.38;;;13.40;99.90;;;;;;5063943;28;20072;-65
2023/09/03 02:51:14;;;;;;;17.95;13.93;;;13.40;99.90;;;;;;5064694;28;20091;-63
2023/09/03 02:53:42;;;;;;;22.85;14.38;;;13.40;99.90;;;;;;5045683;28;20039;-62
2023/09/03 02:56:08;;;;;;;21.38;14.52;;;13.40;99.90;;;;;;5061504;28;20052;-64
2023/09/03 02:58:34;;;;;;;19.80;15.00;;;13.40;99.90;;;;;;5064008;28;20052;-61
2023/09/03 03:01:14;;;;;;;19.75;14.40;;;13.40;99.90;;;;;;5053029;28;20041;-63
2023/09/03 03:03:40;;;;;;;20.73;14.63;;;13.50;99.90;;;;;;5045284;28;20427;-62
2023/09/03 03:06:06;;;;;;;19.67;14.52;;;13.40;99.90;;;;;;5064496;28;20547;-62
2023/09/03 03:08:31;;;;;;;19.70;14.25;;;13.40;99.90;;;;;;5064461;28;20125;-64
2023/09/03 03:11:14;;;;;;;26.48;16.55;;;13.40;99.90;;;;;;5045006;28;20123;-61
2023/09/03 03:13:41;;;;;;;17.95;13.77;;;13.40;99.90;;;;;;5043335;28;20056;-65
2023/09/03 03:16:12;;;;;;;20.52;14.35;;;13.30;99.90;;;;;;5038190;28;20036;-62
2023/09/03 03:18:42;;;;;;;17.40;13.80;;;13.30;99.90;;;;;;5063735;28;20053;-64
2023/09/03 03:21:14;;;;;;;19.73;13.80;;;13.30;99.90;;;;;;5051300;28;20095;-63
2023/09/03 03:23:41;;;;;;;19.38;14.52;;;13.20;99.90;;;;;;5027266;28;20076;-61
2023/09/03 03:26:07;;;;;;;17.10;13.90;;;13.20;99.90;;;;;;5061698;28;20545;-63
2023/09/03 03:28:34;;;;;;;18.00;13.75;;;13.10;99.90;;;;;;5059826;28;20033;-63
2023/09/03 03:31:18;;;;;;;20.60;13.68;;;13.10;99.90;;;;;;5043721;28;20049;-62
2023/09/03 03:33:45;;;;;;;19.02;13.32;;;13.10;99.90;;;;;;5049649;28;20083;-64
2023/09/03 03:36:14;;;;;;;18.42;13.57;;;13.10;99.90;;;;;;5063509;28;20044;-65
2023/09/03 03:38:39;;;;;;;17.70;12.63;;;13.00;99.90;;;;;;5065233;28;20049;-62
2023/09/03 03:41:13;;;;;;;19.55;12.68;;;13.00;99.90;;;;;;5043354;28;20102;-63
2023/09/03 03:43:44;;;;;;;15.45;12.63;;;13.00;99.90;;;;;;5044113;28;20079;-65
2023/09/03 03:46:13;;;;;;;17.08;12.82;;;13.00;99.90;;;;;;5027494;28;20045;-64
2023/09/03 03:48:39;;;;;;;18.20;12.50;;;13.00;99.90;;;;;;5043391;28;20385;-61
2023/09/03 03:51:05;;;;;;;15.10;9.60;;;13.00;99.90;;;;;;5044311;28;20043;-63
2023/09/03 03:53:30;;;;;;;13.57;10.43;;;12.90;99.90;;;;;;5043362;28;20123;-66
2023/09/03 03:56:01;;;;;;;13.77;10.05;;;12.90;99.90;;;;;;5041985;28;20045;-63
2023/09/03 03:58:28;;;;;;;14.73;11.15;;;12.80;99.90;;;;;;5063382;28;20052;-63
2023/09/03 04:00:54;;;;;;;14.00;10.15;;;12.80;99.90;;;;;;5051022;28;20394;-64
2023/09/03 04:03:24;;;;;;;15.60;11.43;;;12.70;99.90;;;;;;5044129;28;20043;-61
2023/09/03 04:05:57;;;;;;;16.70;12.00;;;12.70;99.90;;;;;;5043325;28;20053;-62
2023/09/03 04:08:23;;;;;;;16.35;11.77;;;12.70;99.90;;;;;;5042777;28;20050;-61
2023/09/03 04:11:00;;;;;;;13.75;11.20;;;12.70;99.90;;;;;;5040906;28;20048;-61
2023/09/03 04:13:26;;;;;;;17.17;12.98;;;12.70;99.90;;;;;;5062663;28;20050;-62
2023/09/03 04:15:53;;;;;;;15.52;11.68;;;12.60;99.90;;;;;;5062414;28;20044;-62
2023/09/03 04:18:18;;;;;;;17.00;12.30;;;12.60;99.90;;;;;;5064321;28;20447;-64
2023/09/03 04:20:44;;;;;;;18.00;13.35;;;12.70;99.90;;;;;;5044942;28;20036;-61
2023/09/03 04:23:09;;;;;;;14.93;10.35;;;12.70;99.90;;;;;;5064459;28;20037;-61
2023/09/03 04:25:35;;;;;;;16.60;12.07;;;12.60;99.90;;;;;;5061017;28;20097;-61
2023/09/03 04:28:01;;;;;;;14.57;10.73;;;12.60;99.90;;;;;;5062838;28;20028;-61
2023/09/03 04:30:26;;;;;;;15.90;10.82;;;12.60;99.90;;;;;;5043345;28;20047;-61
2023/09/03 04:32:52;;;;;;;18.20;11.80;;;12.60;99.90;;;;;;5062564;28;20561;-63
2023/09/03 04:35:17;;;;;;;14.40;11.48;;;12.70;99.90;;;;;;5062989;28;20580;-62
2023/09/03 04:37:43;;;;;;;17.02;11.65;;;12.70;99.90;;;;;;5064775;28;20115;-61
2023/09/03 04:40:09;;;;;;;12.57;8.95;;;12.70;99.90;;;;;;5052849;28;20048;-63
2023/09/03 04:42:35;;;;;;;12.50;9.35;;;12.70;99.90;;;;;;5039479;28;20132;-61
2023/09/03 04:45:00;;;;;;;13.00;10.20;;;12.70;99.90;;;;;;5044666;28;20037;-62
2023/09/03 04:47:26;;;;;;;11.90;8.63;;;12.60;99.90;;;;;;5042998;28;20041;-63
2023/09/03 04:49:51;;;;;;;13.88;10.25;;;12.60;99.90;;;;;;5043086;28;20051;-63
2023/09/03 04:52:17;;;;;;;14.43;10.30;;;12.50;99.90;;;;;;5043549;28;20049;-65
2023/09/03 04:54:43;;;;;;;16.50;10.77;;;12.60;99.90;;;;;;5060173;28;20036;-63
2023/09/03 04:57:09;;;;;;;14.15;10.15;;;12.60;99.90;;;;;;5062439;28;20554;-62
2023/09/03 04:59:35;;;;;;;13.13;10.30;;;12.60;99.90;;;;;;5061500;28;20134;-63
2023/09/03 05:02:01;;;;;;;14.18;9.52;;;12.60;99.90;;;;;;5062529;28;20044;-63
2023/09/03 05:04:26;;;;;;;12.75;8.20;;;12.60;99.90;;;;;;5051862;28;20057;-62
2023/09/03 05:06:52;;;;;;;9.35;6.50;;;12.60;99.90;;;;;;5044722;28;20103;-62
2023/09/03 05:09:17;;;;;;;11.77;8.50;;;12.60;99.90;;;;;;5046431;28;20079;-63
2023/09/03 05:11:43;;;;;;;10.23;7.75;;;12.60;99.90;;;;;;5066033;28;20032;-63
2023/09/03 05:14:09;;;;;;;10.25;7.88;;;12.60;99.90;;;;;;5066464;28;20048;-63
2023/09/03 05:16:34;;;;;;;9.95;7.70;;;12.50;99.90;;;;;;5066248;28;20048;-63
2023/09/03 05:19:04;;;;;;;10.98;7.55;;;12.50;99.90;;;;;;5064051;28;20067;-61
2023/09/03 05:21:31;;;;;;;12.95;9.07;;;12.50;99.90;;;;;;5046100;28;20489;-63
2023/09/03 05:23:57;;;;;;;13.57;9.65;;;12.40;99.90;;;;;;5045863;28;20535;-62
2023/09/03 05:26:23;;;;;;;11.90;8.82;;;12.50;99.90;;;;;;5065379;28;20134;-62
2023/09/03 05:28:49;;;;;;;15.50;10.75;;;12.50;99.90;;;;;;5067637;28;20087;-63
2023/09/03 05:31:15;;;;;;;16.42;10.57;;;12.60;99.90;;;;;;5052470;28;20041;-61
2023/09/03 05:33:41;;;;;;;12.85;10.15;;;12.60;99.90;;;;;;5028467;28;20040;-62
2023/09/03 05:36:06;;;;;;;18.38;11.18;;;12.70;99.90;;;;;;5045968;28;20040;-62
2023/09/03 05:38:32;;;;;;;16.52;12.18;;;12.70;99.90;;;;;;5047464;28;20544;-65
2023/09/03 05:41:00;;;;;;;18.05;12.70;;;12.80;99.90;;;;;;5062175;28;20044;-63
2023/09/03 05:43:29;;;;;;;10.38;8.07;;;12.90;99.90;;;;;;5056830;28;20087;-62
2023/09/03 05:45:54;;;;;;;13.57;8.93;;;13.00;99.90;;;;;;5047058;28;20415;-63
2023/09/03 05:48:20;;;;;;;12.02;9.23;;;13.00;99.90;;;;;;5046598;28;20045;-61
2023/09/03 05:50:45;;;;;;;11.02;8.65;;;13.10;99.90;;;;;;5074779;28;20162;-61
2023/09/03 05:53:11;;;;;;;13.10;10.07;;;13.20;99.90;;;;;;5047115;28;20037;-61
2023/09/03 05:55:39;;;;;;;12.70;9.43;;;13.40;99.90;;;;;;5058995;28;20048;-62
2023/09/03 05:58:05;;;;;;;11.82;9.05;;;13.60;99.90;;;;;;5065045;28;20150;-62
2023/09/03 06:00:31;;;;;;;10.63;7.25;;;13.70;99.90;;;;;;5055467;28;20048;-61
2023/09/03 06:02:57;;;;;;;13.20;8.48;;;13.80;99.90;;;;;;5044920;28;20488;-62
2023/09/03 06:05:27;;;;;;;10.18;8.02;;;13.90;99.90;;;;;;5045379;28;20484;-63
2023/09/03 06:07:52;;;;;;;11.70;7.85;;;13.90;99.90;;;;;;5045449;28;20052;-63
2023/09/03 06:10:18;;;;;;;11.80;8.70;;;14.00;99.90;;;;;;5054552;28;20049;-61
2023/09/03 06:12:44;;;;;;;13.20;10.50;;;14.00;99.90;;;;;;5047786;28;20071;-62
2023/09/03 06:15:09;;;;;;;11.77;9.68;;;14.10;99.90;;;;;;5063775;28;20051;-62
2023/09/03 06:17:35;;;;;;;13.38;9.85;;;14.30;99.90;;;;;;5065225;28;20036;-63
2023/09/03 06:20:01;;;;;;;15.32;11.10;;;14.40;99.90;;;;;;5055078;28;20045;-62
2023/09/03 06:22:27;;;;;;;13.68;11.35;;;14.40;99.90;;;;;;5045419;28;20045;-63
2023/09/03 06:24:52;;;;;;;13.52;10.63;;;14.50;99.90;;;;;;5050699;28;20293;-63
2023/09/03 06:27:18;;;;;;;16.40;11.80;;;14.50;99.90;;;;;;5047116;28;20686;-67
2023/09/03 06:29:43;;;;;;;15.00;12.10;;;14.60;99.90;;;;;;5038521;28;20044;-63
2023/09/03 06:32:09;;;;;;;15.93;11.82;;;14.70;99.90;;;;;;5046219;28;20120;-65
2023/09/03 06:34:35;;;;;;;14.68;11.40;;;14.70;99.90;;;;;;5046681;28;20097;-62
2023/09/03 06:37:01;;;;;;;20.58;14.52;;;14.70;99.90;;;;;;5045125;28;20032;-63
2023/09/03 06:39:26;;;;;;;15.90;12.45;;;14.80;99.90;;;;;;5049137;28;20545;-64
2023/09/03 06:41:52;;;;;;;15.68;11.65;;;14.80;99.90;;;;;;5065008;28;20048;-63
2023/09/03 06:44:17;;;;;;;16.02;10.68;;;14.90;99.90;;;;;;5065156;28;20044;-64
2023/09/03 06:46:43;;;;;;;13.75;10.13;;;15.00;99.90;;;;;;5066229;28;20060;-64
2023/09/03 06:49:08;;;;;;;14.35;10.13;;;15.10;99.90;;;;;;5061797;28;20045;-64
2023/09/03 06:51:34;;;;;;;15.43;9.48;;;15.30;99.90;;;;;;5028428;28;20496;-63
2023/09/03 06:54:00;;;;;;;15.48;9.90;;;15.40;99.90;;;;;;5045423;28;20049;-66
2023/09/03 06:56:25;;;;;;;13.50;9.07;;;15.50;99.90;;;;;;5062658;28;20075;-64
2023/09/03 06:58:51;;;;;;;14.32;9.10;;;15.60;99.90;;;;;;5058833;28;20182;-63
2023/09/03 07:01:18;;;;;;;12.20;8.57;;;15.70;99.90;;;;;;5065557;28;20086;-62
2023/09/03 07:03:43;;;;;;;11.68;8.68;;;15.90;99.90;;;;;;5057721;28;20080;-64
2023/09/03 07:06:09;;;;;;;11.80;8.18;;;16.10;99.90;;;;;;5045675;28;20084;-64
2023/09/03 07:08:35;;;;;;;11.10;7.65;;;16.30;99.90;;;;;;5027276;28;20080;-64
2023/09/03 07:11:00;;;;;;;11.93;7.68;;;16.40;99.90;;;;;;5058932;28;20479;-64
2023/09/03 07:13:26;;;;;;;12.38;7.68;;;16.60;99.90;;;;;;5064256;28;20527;-64
2023/09/03 07:15:52;;;;;;;10.55;7.00;;;16.70;99.90;;;;;;5064403;28;20041;-62
2023/09/03 07:18:17;;;;;;;9.75;6.72;;;16.80;99.90;;;;;;5048137;28;20513;-63
2023/09/03 07:20:43;;;;;;;10.80;7.28;;;16.90;99.90;;;;;;5044096;28;20044;-62
2023/09/03 07:23:08;;;;;;;10.18;6.68;;;16.90;99.90;;;;;;5075114;28;20056;-62
2023/09/03 07:25:35;;;;;;;9.63;6.25;;;17.00;99.90;;;;;;5044392;28;20115;-63
2023/09/03 07:28:01;;;;;;;9.50;6.40;;;17.10;99.90;;;;;;5042863;28;20053;-63
2023/09/03 07:30:28;;;;;;;12.27;5.57;;;17.20;99.90;;;;;;5027066;28;20631;-64
2023/09/03 07:32:53;;;;;;;8.23;5.13;;;17.20;99.90;;;;;;5061371;28;20048;-62
2023/09/03 07:35:19;;;;;;;11.55;5.30;;;17.30;99.90;;;;;;5065659;28;20545;-62
2023/09/03 07:37:44;;;;;;;8.35;4.90;;;17.40;99.90;;;;;;5065119;28;20049;-63
2023/09/03 07:40:12;;;;;;;11.23;4.25;;;17.50;99.90;;;;;;5049619;28;20317;-62
2023/09/03 07:42:38;;;;;;;7.90;4.60;;;17.50;99.90;;;;;;5042433;28;20044;-63
2023/09/03 07:45:04;;;;;;;9.80;4.40;;;17.50;99.90;;;;;;5045197;28;20442;-61
2023/09/03 07:47:30;;;;;;;8.75;4.00;;;17.50;99.90;;;;;;5043934;28;20044;-62
2023/09/03 07:49:55;;;;;;;7.18;3.50;;;17.50;99.90;;;;;;5053551;28;20514;-62
2023/09/03 07:52:21;;;;;;;7.68;3.45;;;17.50;99.90;;;;;;5047594;28;20029;-62
2023/09/03 07:54:47;;;;;;;7.63;3.90;;;17.60;99.90;;;;;;5032182;28;20201;-62
2023/09/03 07:57:13;;;;;;;8.32;3.33;;;17.60;99.90;;;;;;5064433;28;20105;-62
2023/09/03 07:59:39;;;;;;;7.72;3.35;;;17.60;99.90;;;;;;5064243;28;20036;-63
2023/09/03 08:02:04;;;;;;;7.10;3.20;;;17.70;99.90;;;;;;5063123;28;20306;-61
2023/09/03 08:04:30;;;;;;;7.47;2.78;;;17.70;99.90;;;;;;5062816;28;20060;-64
2023/09/03 08:06:55;;;;;;;6.43;2.65;;;17.80;99.90;;;;;;5060515;28;20059;-61
2023/09/03 08:09:23;;;;;;;6.70;2.75;;;17.80;99.90;;;;;;5059679;28;20056;-63
2023/09/03 08:11:50;;;;;;;8.13;2.70;;;18.00;99.90;;;;;;5043980;28;20041;-65
2023/09/03 08:14:16;;;;;;;5.45;2.72;;;18.00;99.90;;;;;;5026461;28;20132;-61
2023/09/03 08:16:41;;;;;;;7.63;2.80;;;18.00;99.90;;;;;;5061932;28;20174;-62
2023/09/03 08:19:07;;;;;;;8.18;2.83;;;18.10;99.90;;;;;;5061330;28;20044;-62
2023/09/03 08:21:32;;;;;;;7.38;2.78;;;18.10;99.90;;;;;;5011707;28;20428;-63
2023/09/03 08:23:58;;;;;;;7.13;2.70;;;18.20;99.90;;;;;;5045455;28;20041;-62
2023/09/03 08:26:24;;;;;;;8.65;2.80;;;18.30;99.90;;;;;;5044818;28;20090;-63
2023/09/03 08:28:49;;;;;;;8.55;2.40;;;18.40;99.90;;;;;;5042330;28;20080;-62
2023/09/03 08:31:15;;;;;;;7.65;2.58;;;18.50;99.90;;;;;;5043577;28;20446;-62
2023/09/03 08:33:41;;;;;;;6.28;2.15;;;18.70;99.90;;;;;;5043901;28;20041;-64
2023/09/03 08:36:06;;;;;;;5.25;2.38;;;18.90;99.90;;;;;;5044580;28;20056;-62
2023/09/03 08:38:32;;;;;;;5.70;2.90;;;19.50;99.90;;;;;;5042432;28;20056;-62
2023/09/03 08:40:58;;;;;;;5.82;2.50;;;19.80;99.90;;;;;;5043226;28;20064;-62
2023/09/03 08:43:25;;;;;;;6.70;2.80;;;20.00;99.90;;;;;;5043073;28;20041;-64
2023/09/03 08:45:59;;;;;;;6.47;2.40;;;20.00;99.90;;;;;;5028353;28;20055;-63
2023/09/03 08:48:24;;;;;;;8.52;2.72;;;19.90;99.90;;;;;;5046771;28;20045;-63
2023/09/03 08:50:51;;;;;;;6.55;2.60;;;19.70;99.90;;;;;;5046768;28;20043;-61
2023/09/03 08:53:17;;;;;;;4.80;2.00;;;19.60;99.90;;;;;;5047671;28;20087;-64
2023/09/03 08:55:43;;;;;;;4.20;1.80;;;19.50;99.90;;;;;;5048453;28;20028;-63
2023/09/03 08:58:09;;;;;;;7.43;2.25;;;19.40;99.90;;;;;;5047177;28;20040;-64
2023/09/03 09:00:36;;;;;;;6.38;2.17;;;19.30;99.90;;;;;;5050592;28;20078;-62
2023/09/03 09:03:05;;;;;;;5.95;2.28;;;19.20;99.90;;;;;;5053349;28;20399;-61
2023/09/03 09:05:31;;;;;;;6.75;2.58;;;19.20;99.90;;;;;;5045635;28;20061;-63
2023/09/03 09:07:59;;;;;;;6.22;2.88;;;19.10;99.90;;;;;;5053676;28;20044;-63
2023/09/03 09:10:30;;;;;;;7.15;2.45;;;19.10;99.90;;;;;;5052859;28;20045;-62
2023/09/03 09:13:05;;;;;;;6.00;2.22;;;19.10;99.90;;;;;;5054316;28;20035;-64
2023/09/03 09:15:31;;;;;;;7.43;2.38;;;19.10;99.90;;;;;;5053540;28;20074;-62
2023/09/03 09:17:57;;;;;;;6.43;2.35;;;19.10;99.90;;;;;;5055217;28;20040;-62
2023/09/03 09:20:23;;;;;;;5.05;2.03;;;19.20;99.90;;;;;;5054579;28;20040;-64
2023/09/03 09:22:49;;;;;;;5.80;2.22;;;19.20;99.90;;;;;;5056554;28;20063;-64
2023/09/03 09:25:22;;;;;;;4.30;2.00;;;19.20;99.90;;;;;;5055203;28;20040;-65
2023/09/03 09:27:49;;;;;;;6.33;2.20;;;19.20;99.90;;;;;;5055155;28;20128;-64
2023/09/03 09:30:18;;;;;;;5.47;2.00;;;19.20;99.90;;;;;;5056410;28;20056;-62
2023/09/03 09:32:45;;;;;;;5.38;1.88;;;19.20;99.90;;;;;;5057778;28;20033;-64
2023/09/03 09:35:22;;;;;;;5.45;2.22;;;19.30;99.90;;;;;;5066659;28;20037;-63
2023/09/03 09:37:48;;;;;;;5.72;1.88;;;19.30;99.90;;;;;;5053198;28;20048;-64
2023/09/03 09:40:24;;;;;;;5.13;1.90;;;19.30;99.90;;;;;;5050597;28;20052;-63
2023/09/03 09:42:55;;;;;;;5.88;1.90;;;19.30;99.90;;;;;;5053854;28;20066;-63
2023/09/03 09:45:20;;;;;;;4.82;1.92;;;19.40;99.90;;;;;;5055435;28;20044;-63
2023/09/03 09:47:46;;;;;;;6.10;1.92;;;19.40;99.90;;;;;;5056173;28;20029;-63
2023/09/03 09:50:12;;;;;;;5.50;1.80;;;19.40;99.90;;;;;;5055820;28;20602;-63
2023/09/03 09:52:38;;;;;;;4.72;2.00;;;19.50;99.90;;;;;;5055358;28;20048;-63
2023/09/03 09:55:04;;;;;;;4.35;1.70;;;19.60;99.90;;;;;;5054389;28;20037;-65
2023/09/03 09:57:30;;;;;;;4.13;1.50;;;19.70;99.90;;;;;;5054133;28;20036;-62
2023/09/03 10:00:00;;;;;;;6.30;1.70;;;19.70;99.90;;;;;;5055992;28;20041;-64
2023/09/03 10:02:26;;;;;;;4.53;1.90;;;19.70;99.90;;;;;;5057885;28;20037;-63
2023/09/03 10:04:53;;;;;;;5.15;1.90;;;19.70;99.90;;;;;;5055471;28;20055;-67
2023/09/03 10:07:19;;;;;;;5.03;1.70;;;19.80;99.90;;;;;;5055410;28;20041;-64
2023/09/03 10:09:45;;;;;;;5.03;1.65;;;19.80;99.90;;;;;;5057488;28;20047;-63
2023/09/03 10:12:12;;;;;;;5.30;1.90;;;19.80;99.90;;;;;;5052855;28;20173;-64
2023/09/03 10:14:38;;;;;;;6.05;2.10;;;19.90;99.90;;;;;;5053141;28;20702;-63
2023/09/03 10:17:06;;;;;;;5.97;2.20;;;20.00;99.90;;;;;;5038297;28;20029;-65
2023/09/03 10:19:50;;;;;;;5.72;1.83;;;20.00;99.90;;;;;;5054070;28;20098;-63
2023/09/03 10:22:18;;;;;;;4.68;2.00;;;20.00;99.90;;;;;;5054670;28;20048;-63
2023/09/03 10:24:49;;;;;;;6.03;1.95;;;20.10;99.90;;;;;;5055574;28;20090;-65
2023/09/03 10:27:19;;;;;;;4.85;1.92;;;20.20;99.90;;;;;;5052831;28;20202;-63
2023/09/03 10:29:48;;;;;;;4.95;1.52;;;20.30;99.90;;;;;;5056055;28;20486;-63
2023/09/03 10:32:15;;;;;;;7.40;1.70;;;20.30;99.90;;;;;;5051161;28;20325;-63
2023/09/03 10:34:41;;;;;;;5.18;1.90;;;20.20;99.90;;;;;;5044873;28;20033;-63
2023/09/03 10:37:12;;;;;;;5.55;2.00;;;20.30;99.90;;;;;;5046696;28;20110;-62
2023/09/03 10:39:43;;;;;;;6.82;1.80;;;20.30;99.90;;;;;;5047690;28;20503;-63
2023/09/03 10:42:14;;;;;;;4.03;1.70;;;20.30;99.90;;;;;;5052639;28;20045;-64
2023/09/03 10:44:44;;;;;;;6.57;1.88;;;20.40;99.90;;;;;;5045255;28;20053;-62
2023/09/03 10:47:13;;;;;;;5.65;2.00;;;20.40;99.90;;;;;;5059085;28;20514;-66
2023/09/03 10:49:50;;;;;;;5.53;1.80;;;20.50;99.90;;;;;;5063322;28;20041;-63
2023/09/03 10:52:31;;;;;;;5.13;1.73;;;20.50;99.90;;;;;;5064383;28;20559;-63
2023/09/03 10:55:14;;;;;;;4.60;1.67;;;20.50;99.90;;;;;;5062588;28;20067;-62
2023/09/03 10:57:41;;;;;;;6.10;1.75;;;20.50;99.90;;;;;;5064149;28;20151;-65
2023/09/03 11:00:21;;;;;;;4.47;1.60;;;20.50;99.90;;;;;;5065617;28;20044;-65
2023/09/03 11:02:47;;;;;;;4.93;1.48;;;20.60;99.90;;;;;;5039372;28;20036;-65
2023/09/03 11:05:22;;;;;;;5.10;1.63;;;20.70;99.90;;;;;;5044451;28;20122;-65
2023/09/03 11:08:21;;;;;;;3.40;1.40;;;20.70;99.90;;;;;;5043462;28;20049;-65
2023/09/03 11:10:48;;;;;;;4.25;1.50;;;20.80;99.90;;;;;;5045468;28;20153;-65
2023/09/03 11:13:14;;;;;;;4.95;1.70;;;20.80;99.90;;;;;;5042488;28;20037;-65
2023/09/03 11:15:47;;;;;;;3.38;1.25;;;20.90;99.90;;;;;;5044079;28;20475;-63
2023/09/03 11:18:17;;;;;;;4.53;1.40;;;20.90;99.90;;;;;;5048907;28;20032;-65
2023/09/03 11:20:43;;;;;;;4.63;1.40;;;20.90;99.90;;;;;;5042146;28;20271;-64
2023/09/03 11:23:10;;;;;;;5.88;1.63;;;21.00;99.90;;;;;;5044467;28;20041;-64
2023/09/03 11:25:40;;;;;;;5.57;1.50;;;21.00;99.90;;;;;;5044947;28;20494;-65
2023/09/03 11:28:08;;;;;;;5.13;1.42;;;21.10;99.90;;;;;;5043341;28;20056;-66
2023/09/03 11:30:34;;;;;;;3.80;1.25;;;21.10;99.90;;;;;;5043576;28;20143;-62
2023/09/03 11:33:00;;;;;;;4.15;1.30;;;21.10;99.90;;;;;;5060343;28;20284;-64
2023/09/03 11:35:27;;;;;;;5.45;1.70;;;21.10;99.90;;;;;;5045576;28;20103;-66
2023/09/03 11:37:53;;;;;;;5.03;1.50;;;21.10;99.90;;;;;;5077541;28;20052;-62
2023/09/03 11:40:23;;;;;;;4.00;1.30;;;21.10;99.90;;;;;;5049113;28;20045;-65
2023/09/03 11:42:50;;;;;;;5.35;1.50;;;21.20;99.90;;;;;;5041726;28;20044;-65
2023/09/03 11:45:16;;;;;;;5.05;1.58;;;21.20;99.90;;;;;;5076903;28;20047;-63
2023/09/03 11:47:50;;;;;;;4.55;1.45;;;21.20;99.90;;;;;;5044001;28;20542;-64
2023/09/03 11:50:16;;;;;;;3.40;1.50;;;21.30;99.90;;;;;;5046872;28;20739;-64
2023/09/03 11:52:51;;;;;;;6.57;1.67;;;21.30;99.90;;;;;;5045353;28;20752;-62
2023/09/03 11:55:16;;;;;;;6.18;2.00;;;21.40;99.90;;;;;;5042309;28;20036;-64
2023/09/03 11:57:46;;;;;;;4.30;1.27;;;21.40;99.90;;;;;;5025479;28;20407;-63
2023/09/03 12:00:12;;;;;;;4.20;1.63;;;21.50;99.90;;;;;;5042675;28;20119;-63
2023/09/03 12:02:42;;;;;;;4.93;1.30;;;21.50;99.90;;;;;;5044225;28;20044;-64
2023/09/03 12:05:09;;;;;;;5.30;1.60;;;21.50;99.90;;;;;;5027955;28;20077;-64
2023/09/03 12:07:35;;;;;;;3.60;1.30;;;21.60;99.90;;;;;;5044323;28;20059;-62
2023/09/03 12:10:01;;;;;;;6.40;1.48;;;21.60;99.90;;;;;;5047926;28;20040;-63
2023/09/03 12:12:27;;;;;;;4.25;1.50;;;21.60;99.90;;;;;;5041956;28;20393;-63
2023/09/03 12:14:53;;;;;;;4.55;1.75;;;21.60;99.90;;;;;;5043066;28;20044;-62
2023/09/03 12:17:26;;;;;;;6.15;1.88;;;21.50;99.90;;;;;;5065561;28;20048;-62
2023/09/03 12:19:52;;;;;;;5.00;1.30;;;21.40;99.90;;;;;;5060419;28;20052;-62
2023/09/03 12:22:19;;;;;;;6.57;1.50;;;21.40;99.90;;;;;;5039821;28;20422;-63
2023/09/03 12:24:48;;;;;;;4.07;1.38;;;21.40;99.90;;;;;;5031928;28;20040;-64
2023/09/03 12:27:15;;;;;;;5.35;1.70;;;21.40;99.90;;;;;;5030079;28;20183;-64
2023/09/03 12:29:41;;;;;;;4.57;1.50;;;21.30;99.90;;;;;;5046339;28;20041;-64
2023/09/03 12:32:09;;;;;;;3.42;1.17;;;21.20;99.90;;;;;;5057522;28;20105;-63
2023/09/03 12:34:36;;;;;;;3.72;1.42;;;21.20;99.90;;;;;;5067772;28;20036;-61
2023/09/03 12:37:02;;;;;;;4.03;1.52;;;21.10;99.90;;;;;;5059114;28;20041;-63
2023/09/03 12:39:31;;;;;;;4.20;1.50;;;21.00;99.90;;;;;;5046801;28;20403;-62